sensor_id;sensor_type;location;lat;lon;timestamp;pressure;altitude;pressure_sealevel;temperature;humidity
59927;BME280;45784;55.156;73.270;2022-07-29T00:00:57;66774.31;;;-148.96;100.00
59927;BME280;45784;55.156;73.270;2022-07-29T00:03:24;66774.31;;;-148.96;100.00
59927;BME280;45784;55.156;73.270;2022-07-29T00:05:51;66774.31;;;-148.96;100.00
59927;BME280;45784;55.156;73.270;2022-07-29T00:08:20;66774.31;;;-148.96;100.00
59927;BME280;45784;55.156;73.270;2022-07-29T00:10:47;66774.31;;;-148.96;100.00
59927;BME280;45784;55.156;73.270;2022-07-29T00:13:14;66774.31;;;-148.96;100.00
59927;BME280;45784;55.156;73.270;2022-07-29T00:15:41;66774.31;;;-148.96;100.00
59927;BME280;45784;55.156;73.270;2022-07-29T00:18:08;66774.31;;;-148.96;100.00
59927;BME280;45784;55.156;73.270;2022-07-29T00:20:34;66774.31;;;-148.96;100.00
59927;BME280;45784;55.156;73.270;2022-07-29T00:23:01;66774.31;;;-148.96;100.00
59927;BME280;45784;55.156;73.270;2022-07-29T00:25:28;66774.31;;;-148.96;100.00
59927;BME280;45784;55.156;73.270;2022-07-29T00:27:55;66774.31;;;-148.96;100.00
59927;BME280;45784;55.156;73.270;2022-07-29T00:30:22;66774.31;;;-148.96;100.00
59927;BME280;45784;55.156;73.270;2022-07-29T00:32:48;66774.31;;;-148.96;100.00
59927;BME280;45784;55.156;73.270;2022-07-29T00:35:15;66774.31;;;-148.96;100.00
59927;BME280;45784;55.156;73.270;2022-07-29T00:38:00;66774.31;;;-148.96;100.00
59927;BME280;45784;55.156;73.270;2022-07-29T00:40:27;66774.31;;;-148.96;100.00
59927;BME280;45784;55.156;73.270;2022-07-29T00:42:54;66774.31;;;-148.96;100.00
59927;BME280;45784;55.156;73.270;2022-07-29T00:45:21;66774.31;;;-148.96;100.00
59927;BME280;45784;55.156;73.270;2022-07-29T00:47:48;66774.31;;;-148.96;100.00
59927;BME280;45784;55.156;73.270;2022-07-29T00:50:15;66774.31;;;-148.96;100.00
59927;BME280;45784;55.156;73.270;2022-07-29T00:52:43;66774.31;;;-148.96;100.00
59927;BME280;45784;55.156;73.270;2022-07-29T00:55:15;66774.31;;;-148.96;100.00
59927;BME280;45784;55.156;73.270;2022-07-29T00:57:43;66774.31;;;-148.96;100.00
59927;BME280;45784;55.156;73.270;2022-07-29T01:00:14;66774.31;;;-148.96;100.00
59927;BME280;45784;55.156;73.270;2022-07-29T01:02:41;66774.31;;;-148.96;100.00
59927;BME280;45784;55.156;73.270;2022-07-29T01:05:08;66774.31;;;-148.96;100.00
59927;BME280;45784;55.156;73.270;2022-07-29T01:07:37;66774.31;;;-148.96;100.00
59927;BME280;45784;55.156;73.270;2022-07-29T01:10:07;66774.31;;;-148.96;100.00
59927;BME280;45784;55.156;73.270;2022-07-29T01:12:37;66774.31;;;-148.96;100.00
59927;BME280;45784;55.156;73.270;2022-07-29T01:15:06;66774.31;;;-148.96;100.00
59927;BME280;45784;55.156;73.270;2022-07-29T01:18:04;66774.31;;;-148.96;100.00
59927;BME280;45784;55.156;73.270;2022-07-29T01:26:34;99303.22;;;17.93;86.78
59927;BME280;45784;55.156;73.270;2022-07-29T01:32:10;99314.13;;;17.89;87.17
59927;BME280;45784;55.156;73.270;2022-07-29T01:34:50;99309.00;;;17.88;86.94
59927;BME280;45784;55.156;73.270;2022-07-29T01:37:24;99320.81;;;17.88;87.11
59927;BME280;45784;55.156;73.270;2022-07-29T01:39:55;99315.28;;;17.88;87.57
59927;BME280;45784;55.156;73.270;2022-07-29T01:45:18;99322.06;;;17.91;88.02
59927;BME280;45784;55.156;73.270;2022-07-29T01:47:47;99330.66;;;17.89;88.26
59927;BME280;45784;55.156;73.270;2022-07-29T01:50:17;99331.59;;;17.94;88.73
59927;BME280;45784;55.156;73.270;2022-07-29T01:52:56;99327.34;;;17.96;88.57
59927;BME280;45784;55.156;73.270;2022-07-29T01:55:27;99339.66;;;17.99;89.04
59927;BME280;45784;55.156;73.270;2022-07-29T01:57:56;99340.91;;;18.01;89.01
59927;BME280;45784;55.156;73.270;2022-07-29T02:00:25;99352.88;;;18.06;89.51
59927;BME280;45784;55.156;73.270;2022-07-29T02:02:53;99347.34;;;18.06;89.36
59927;BME280;45784;55.156;73.270;2022-07-29T02:05:21;99341.06;;;18.05;89.34
59927;BME280;45784;55.156;73.270;2022-07-29T02:07:50;99345.72;;;18.05;89.32
59927;BME280;45784;55.156;73.270;2022-07-29T02:10:22;99338.16;;;18.01;89.64
59927;BME280;45784;55.156;73.270;2022-07-29T02:12:50;99346.06;;;18.03;89.86
59927;BME280;45784;55.156;73.270;2022-07-29T02:15:19;99353.19;;;18.04;90.00
59927;BME280;45784;55.156;73.270;2022-07-29T02:17:50;99348.97;;;18.07;89.94
59927;BME280;45784;55.156;73.270;2022-07-29T02:20:19;99352.19;;;18.09;89.76
59927;BME280;45784;55.156;73.270;2022-07-29T02:22:46;99362.50;;;18.12;89.82
59927;BME280;45784;55.156;73.270;2022-07-29T02:25:14;99370.66;;;18.08;89.85
59927;BME280;45784;55.156;73.270;2022-07-29T02:27:43;99375.84;;;18.10;89.62
59927;BME280;45784;55.156;73.270;2022-07-29T02:30:12;99376.69;;;18.07;89.67
59927;BME280;45784;55.156;73.270;2022-07-29T02:32:41;98863.38;;;18.08;100.00
59927;BME280;45784;55.156;73.270;2022-07-29T02:35:09;99375.41;;;18.08;89.69
59927;BME280;45784;55.156;73.270;2022-07-29T02:37:37;99371.22;;;18.01;89.86
59927;BME280;45784;55.156;73.270;2022-07-29T02:40:05;97525.56;;;18.02;89.72
59927;BME280;45784;55.156;73.270;2022-07-29T02:42:36;66774.31;;;-148.96;100.00
59927;BME280;45784;55.156;73.270;2022-07-29T02:45:05;66774.31;;;191.32;100.00
59927;BME280;45784;55.156;73.270;2022-07-29T02:47:43;99357.78;;;18.00;89.89
59927;BME280;45784;55.156;73.270;2022-07-29T02:50:16;66774.31;;;-148.96;100.00
59927;BME280;45784;55.156;73.270;2022-07-29T02:52:47;66774.31;;;-148.96;100.00
59927;BME280;45784;55.156;73.270;2022-07-29T02:55:24;66774.31;;;-148.96;100.00
59927;BME280;45784;55.156;73.270;2022-07-29T02:58:15;66774.31;;;-148.96;100.00
59927;BME280;45784;55.156;73.270;2022-07-29T03:00:47;66774.31;;;-148.96;100.00
59927;BME280;45784;55.156;73.270;2022-07-29T03:03:16;66774.31;;;-148.96;100.00
59927;BME280;45784;55.156;73.270;2022-07-29T03:05:44;66774.31;;;-148.96;100.00
59927;BME280;45784;55.156;73.270;2022-07-29T03:08:12;66774.31;;;-148.96;100.00
59927;BME280;45784;55.156;73.270;2022-07-29T03:10:44;66774.31;;;-148.96;100.00
59927;BME280;45784;55.156;73.270;2022-07-29T03:13:12;66774.31;;;-148.96;100.00
59927;BME280;45784;55.156;73.270;2022-07-29T03:15:40;66774.31;;;-148.96;100.00
59927;BME280;45784;55.156;73.270;2022-07-29T03:18:09;66774.31;;;-148.96;100.00
59927;BME280;45784;55.156;73.270;2022-07-29T03:20:37;66774.31;;;-148.96;100.00
59927;BME280;45784;55.156;73.270;2022-07-29T03:23:05;66774.31;;;-148.96;100.00
59927;BME280;45784;55.156;73.270;2022-07-29T03:25:32;66774.31;;;-148.96;100.00
59927;BME280;45784;55.156;73.270;2022-07-29T03:27:59;66774.31;;;-148.96;100.00
59927;BME280;45784;55.156;73.270;2022-07-29T03:30:26;99357.78;;;18.00;89.89
59927;BME280;45784;55.156;73.270;2022-07-29T03:32:53;99355.03;;;188.29;90.32
59927;BME280;45784;55.156;73.270;2022-07-29T03:35:20;66774.31;;;-148.96;100.00
59927;BME280;45784;55.156;73.270;2022-07-29T03:37:47;66774.31;;;-148.96;100.00
59927;BME280;45784;55.156;73.270;2022-07-29T03:40:19;66774.31;;;-148.96;100.00
59927;BME280;45784;55.156;73.270;2022-07-29T03:42:49;66774.31;;;-148.96;100.00
59927;BME280;45784;55.156;73.270;2022-07-29T03:45:18;66774.31;;;-148.96;100.00
59927;BME280;45784;55.156;73.270;2022-07-29T03:47:49;66774.31;;;-148.96;100.00
59927;BME280;45784;55.156;73.270;2022-07-29T03:50:17;66774.31;;;-148.96;100.00
59927;BME280;45784;55.156;73.270;2022-07-29T03:52:46;66774.31;;;-148.96;100.00
59927;BME280;45784;55.156;73.270;2022-07-29T03:55:14;66774.31;;;-148.96;100.00
59927;BME280;45784;55.156;73.270;2022-07-29T03:57:41;66774.31;;;-148.96;100.00
59927;BME280;45784;55.156;73.270;2022-07-29T04:00:09;66774.31;;;-148.96;100.00
59927;BME280;45784;55.156;73.270;2022-07-29T04:02:37;66774.31;;;-148.96;100.00
59927;BME280;45784;55.156;73.270;2022-07-29T04:05:05;66774.31;;;-148.96;100.00
59927;BME280;45784;55.156;73.270;2022-07-29T04:07:38;66774.31;;;-148.96;100.00
59927;BME280;45784;55.156;73.270;2022-07-29T04:10:05;66774.31;;;-148.96;100.00
59927;BME280;45784;55.156;73.270;2022-07-29T04:12:32;66774.31;;;-148.96;100.00
59927;BME280;45784;55.156;73.270;2022-07-29T04:14:59;66774.31;;;-148.96;100.00
59927;BME280;45784;55.156;73.270;2022-07-29T04:17:25;66774.31;;;-148.96;100.00
59927;BME280;45784;55.156;73.270;2022-07-29T04:19:52;66774.31;;;-148.96;100.00
59927;BME280;45784;55.156;73.270;2022-07-29T04:22:19;66774.31;;;-148.96;100.00
59927;BME280;45784;55.156;73.270;2022-07-29T04:24:46;66774.31;;;-148.96;100.00
59927;BME280;45784;55.156;73.270;2022-07-29T04:27:13;66774.31;;;-148.96;100.00
59927;BME280;45784;55.156;73.270;2022-07-29T04:29:40;66774.31;;;-148.96;100.00
59927;BME280;45784;55.156;73.270;2022-07-29T04:32:07;66774.31;;;-148.96;100.00
59927;BME280;45784;55.156;73.270;2022-07-29T04:34:33;66774.31;;;-148.96;100.00
59927;BME280;45784;55.156;73.270;2022-07-29T04:37:00;66774.31;;;-148.96;100.00
59927;BME280;45784;55.156;73.270;2022-07-29T04:39:27;66774.31;;;-148.96;100.00
59927;BME280;45784;55.156;73.270;2022-07-29T04:41:54;66774.31;;;-148.96;100.00
59927;BME280;45784;55.156;73.270;2022-07-29T04:44:21;99355.03;;;18.00;89.59
59927;BME280;45784;55.156;73.270;2022-07-29T04:46:48;66774.31;;;-148.96;100.00
59927;BME280;45784;55.156;73.270;2022-07-29T04:49:15;66774.31;;;-148.96;100.00
59927;BME280;45784;55.156;73.270;2022-07-29T04:51:42;99346.06;;;18.94;88.84
59927;BME280;45784;55.156;73.270;2022-07-29T04:54:09;66774.31;;;-148.96;100.00
59927;BME280;45784;55.156;73.270;2022-07-29T04:56:36;66774.31;;;-148.96;100.00
59927;BME280;45784;55.156;73.270;2022-07-29T04:59:03;99336.16;;;19.66;87.02
59927;BME280;45784;55.156;73.270;2022-07-29T05:01:30;99347.47;;;19.77;86.35
59927;BME280;45784;55.156;73.270;2022-07-29T05:03:56;99347.47;;;19.77;86.35
59927;BME280;45784;55.156;73.270;2022-07-29T05:06:23;99342.94;;;19.85;85.26
59927;BME280;45784;55.156;73.270;2022-07-29T05:08:50;99338.44;;;19.80;84.71
59927;BME280;45784;55.156;73.270;2022-07-29T05:11:17;99338.38;;;19.76;84.59
59927;BME280;45784;55.156;73.270;2022-07-29T05:13:44;99342.84;;;19.81;84.53
59927;BME280;45784;55.156;73.270;2022-07-29T05:16:11;99346.56;;;19.89;84.74
59927;BME280;45784;55.156;73.270;2022-07-29T05:18:38;99340.09;;;19.97;84.77
59927;BME280;45784;55.156;73.270;2022-07-29T05:21:05;99351.03;;;20.10;84.63
59927;BME280;45784;55.156;73.270;2022-07-29T05:23:32;99348.91;;;20.19;83.98
59927;BME280;45784;55.156;73.270;2022-07-29T05:25:59;99338.00;;;20.26;83.48
59927;BME280;45784;55.156;73.270;2022-07-29T05:28:26;99351.38;;;20.40;83.42
59927;BME280;45784;55.156;73.270;2022-07-29T05:30:53;99349.25;;;20.53;82.32
59927;BME280;45784;55.156;73.270;2022-07-29T05:33:20;99341.03;;;20.57;81.49
59927;BME280;45784;55.156;73.270;2022-07-29T05:35:46;99346.16;;;20.75;81.15
59927;BME280;45784;55.156;73.270;2022-07-29T05:38:13;99336.56;;;20.88;80.41
59927;BME280;45784;55.156;73.270;2022-07-29T05:40:41;99351.50;;;21.03;79.39
59927;BME280;45784;55.156;73.270;2022-07-29T05:43:08;99358.72;;;21.08;78.39
59927;BME280;45784;55.156;73.270;2022-07-29T05:45:35;99344.19;;;21.15;78.05
59927;BME280;45784;55.156;73.270;2022-07-29T05:48:02;99349.59;;;21.27;77.53
59927;BME280;45784;55.156;73.270;2022-07-29T05:50:28;99345.34;;;21.33;76.53
59927;BME280;45784;55.156;73.270;2022-07-29T05:52:55;99354.22;;;21.43;77.38
59927;BME280;45784;55.156;73.270;2022-07-29T05:55:22;99355.44;;;21.45;76.49
59927;BME280;45784;55.156;73.270;2022-07-29T05:57:49;99352.50;;;21.58;76.73
59927;BME280;45784;55.156;73.270;2022-07-29T06:00:16;99359.56;;;21.75;76.58
59927;BME280;45784;55.156;73.270;2022-07-29T06:02:43;99348.34;;;21.91;75.53
59927;BME280;45784;55.156;73.270;2022-07-29T06:05:09;99358.31;;;22.23;75.25
59927;BME280;45784;55.156;73.270;2022-07-29T06:07:36;99362.28;;;22.48;74.01
59927;BME280;45784;55.156;73.270;2022-07-29T06:10:03;99360.31;;;22.76;73.23
59927;BME280;45784;55.156;73.270;2022-07-29T06:12:30;99353.28;;;22.86;73.10
59927;BME280;45784;55.156;73.270;2022-07-29T06:14:57;99360.22;;;23.03;71.08
59927;BME280;45784;55.156;73.270;2022-07-29T06:17:24;99358.13;;;23.27;72.17
59927;BME280;45784;55.156;73.270;2022-07-29T06:19:51;99366.09;;;23.66;69.66
59927;BME280;45784;55.156;73.270;2022-07-29T06:22:18;66774.31;;;-148.96;100.00
59927;BME280;45784;55.156;73.270;2022-07-29T06:24:45;89175.31;;;-148.96;100.00
59927;BME280;45784;55.156;73.270;2022-07-29T06:27:12;99366.84;;;24.72;67.32
59927;BME280;45784;55.156;73.270;2022-07-29T06:29:38;99366.84;;;24.72;67.32
59927;BME280;45784;55.156;73.270;2022-07-29T06:32:05;66774.31;;;-148.96;100.00
59927;BME280;45784;55.156;73.270;2022-07-29T06:34:33;99375.53;;;25.55;66.46
59927;BME280;45784;55.156;73.270;2022-07-29T06:37:00;99368.38;;;25.87;65.29
59927;BME280;45784;55.156;73.270;2022-07-29T06:39:28;66774.31;;;-148.96;100.00
59927;BME280;45784;55.156;73.270;2022-07-29T06:41:54;66774.31;;;-148.96;100.00
59927;BME280;45784;55.156;73.270;2022-07-29T06:44:24;99368.25;;;26.74;60.75
59927;BME280;45784;55.156;73.270;2022-07-29T06:46:51;99373.03;;;26.92;60.23
59927;BME280;45784;55.156;73.270;2022-07-29T06:49:19;99364.53;;;27.14;59.81
59927;BME280;45784;55.156;73.270;2022-07-29T06:51:46;66774.31;;;-148.96;100.00
59927;BME280;45784;55.156;73.270;2022-07-29T06:54:13;66774.31;;;-148.96;100.00
59927;BME280;45784;55.156;73.270;2022-07-29T06:56:39;66774.31;;;-148.96;100.00
59927;BME280;45784;55.156;73.270;2022-07-29T06:59:09;99363.38;;;27.75;58.45
59927;BME280;45784;55.156;73.270;2022-07-29T07:01:37;99370.06;;;27.89;57.98
59927;BME280;45784;55.156;73.270;2022-07-29T07:04:04;99364.81;;;27.94;56.29
59927;BME280;45784;55.156;73.270;2022-07-29T07:06:31;99369.50;;;28.08;56.95
59927;BME280;45784;55.156;73.270;2022-07-29T07:09:16;99365.53;;;28.06;55.86
59927;BME280;45784;55.156;73.270;2022-07-29T07:11:43;99386.31;;;28.08;55.39
59927;BME280;45784;55.156;73.270;2022-07-29T07:14:10;99372.91;;;27.85;54.47
59927;BME280;45784;55.156;73.270;2022-07-29T07:16:37;99371.81;;;27.68;56.51
59927;BME280;45784;55.156;73.270;2022-07-29T07:19:04;99368.47;;;27.87;56.51
59927;BME280;45784;55.156;73.270;2022-07-29T07:21:32;99361.59;;;27.99;55.85
59927;BME280;45784;55.156;73.270;2022-07-29T07:23:59;99373.03;;;28.12;54.82
59927;BME280;45784;55.156;73.270;2022-07-29T07:26:27;99368.41;;;28.40;53.87
59927;BME280;45784;55.156;73.270;2022-07-29T07:28:54;99378.94;;;28.64;52.84
59927;BME280;45784;55.156;73.270;2022-07-29T07:31:21;99369.88;;;28.91;53.21
59927;BME280;45784;55.156;73.270;2022-07-29T07:33:47;99379.66;;;29.10;53.49
59927;BME280;45784;55.156;73.270;2022-07-29T07:36:14;99363.53;;;29.18;52.54
59927;BME280;45784;55.156;73.270;2022-07-29T07:38:41;99355.53;;;29.47;52.82
59927;BME280;45784;55.156;73.270;2022-07-29T07:41:08;66774.31;;;-148.96;100.00
59927;BME280;45784;55.156;73.270;2022-07-29T07:43:35;99359.75;;;29.59;51.97
59927;BME280;45784;55.156;73.270;2022-07-29T07:46:01;99360.59;;;29.80;51.72
59927;BME280;45784;55.156;73.270;2022-07-29T07:48:28;99363.47;;;30.00;50.05
59927;BME280;45784;55.156;73.270;2022-07-29T07:50:55;99373.28;;;30.16;49.97
59927;BME280;45784;55.156;73.270;2022-07-29T07:53:22;99361.75;;;30.07;49.25
59927;BME280;45784;55.156;73.270;2022-07-29T07:55:49;99361.41;;;30.05;48.72
59927;BME280;45784;55.156;73.270;2022-07-29T07:58:16;99372.41;;;29.95;48.94
59927;BME280;45784;55.156;73.270;2022-07-29T08:00:43;99359.59;;;29.94;49.42
59927;BME280;45784;55.156;73.270;2022-07-29T08:03:09;99364.91;;;30.12;47.96
59927;BME280;45784;55.156;73.270;2022-07-29T08:05:40;99371.81;;;30.08;47.29
59927;BME280;45784;55.156;73.270;2022-07-29T08:08:07;99356.50;;;30.12;48.43
59927;BME280;45784;55.156;73.270;2022-07-29T08:10:33;99361.91;;;30.23;47.92
59927;BME280;45784;55.156;73.270;2022-07-29T08:13:20;99361.22;;;30.39;47.51
59927;BME280;45784;55.156;73.270;2022-07-29T08:15:47;99359.06;;;30.47;48.00
59927;BME280;45784;55.156;73.270;2022-07-29T08:18:24;99359.22;;;30.60;47.55
59927;BME280;45784;55.156;73.270;2022-07-29T08:20:51;99357.91;;;30.65;46.74
59927;BME280;45784;55.156;73.270;2022-07-29T08:23:18;99358.78;;;30.62;46.64
59927;BME280;45784;55.156;73.270;2022-07-29T08:25:45;99366.59;;;30.74;47.33
59927;BME280;45784;55.156;73.270;2022-07-29T08:28:12;99364.50;;;30.78;46.30
59927;BME280;45784;55.156;73.270;2022-07-29T08:30:39;99355.72;;;30.52;46.37
59927;BME280;45784;55.156;73.270;2022-07-29T08:33:05;99354.94;;;30.32;47.04
59927;BME280;45784;55.156;73.270;2022-07-29T08:35:32;99358.06;;;30.37;47.45
59927;BME280;45784;55.156;73.270;2022-07-29T08:37:59;99357.81;;;30.28;46.62
59927;BME280;45784;55.156;73.270;2022-07-29T08:40:26;99350.13;;;30.52;46.71
59927;BME280;45784;55.156;73.270;2022-07-29T08:42:53;99358.78;;;30.82;45.68
59927;BME280;45784;55.156;73.270;2022-07-29T08:45:21;99362.44;;;30.59;45.12
59927;BME280;45784;55.156;73.270;2022-07-29T08:47:48;99359.38;;;30.09;45.67
59927;BME280;45784;55.156;73.270;2022-07-29T08:50:15;99361.50;;;29.73;46.92
59927;BME280;45784;55.156;73.270;2022-07-29T08:52:43;99357.06;;;29.76;47.05
59927;BME280;45784;55.156;73.270;2022-07-29T08:55:10;99366.84;;;29.92;46.24
59927;BME280;45784;55.156;73.270;2022-07-29T08:57:38;99356.66;;;30.01;45.57
59927;BME280;45784;55.156;73.270;2022-07-29T09:00:07;99359.69;;;29.87;45.96
59927;BME280;45784;55.156;73.270;2022-07-29T09:02:45;99364.22;;;30.05;46.27
59927;BME280;45784;55.156;73.270;2022-07-29T09:05:14;99358.19;;;30.50;47.35
59927;BME280;45784;55.156;73.270;2022-07-29T09:07:41;99357.44;;;30.70;46.26
59927;BME280;45784;55.156;73.270;2022-07-29T09:10:09;99367.53;;;30.67;46.65
59927;BME280;45784;55.156;73.270;2022-07-29T09:12:37;99362.75;;;30.64;46.16
59927;BME280;45784;55.156;73.270;2022-07-29T09:15:05;99359.09;;;30.88;46.85
59927;BME280;45784;55.156;73.270;2022-07-29T09:17:43;99367.56;;;31.04;46.78
59927;BME280;45784;55.156;73.270;2022-07-29T09:20:12;99360.94;;;31.15;46.12
59927;BME280;45784;55.156;73.270;2022-07-29T09:22:39;99367.25;;;31.19;45.97
59927;BME280;45784;55.156;73.270;2022-07-29T09:25:07;99375.75;;;31.35;44.66
59927;BME280;45784;55.156;73.270;2022-07-29T09:27:34;99367.81;;;30.93;45.81
59927;BME280;45784;55.156;73.270;2022-07-29T09:30:07;99365.84;;;31.10;45.25
59927;BME280;45784;55.156;73.270;2022-07-29T09:33:02;99353.41;;;30.91;44.50
59927;BME280;45784;55.156;73.270;2022-07-29T09:35:30;99356.91;;;30.55;46.10
59927;BME280;45784;55.156;73.270;2022-07-29T09:37:57;99359.63;;;30.38;45.38
59927;BME280;45784;55.156;73.270;2022-07-29T09:40:26;99359.09;;;30.23;44.51
59927;BME280;45784;55.156;73.270;2022-07-29T09:42:54;99348.28;;;30.22;45.43
59927;BME280;45784;55.156;73.270;2022-07-29T09:45:30;99352.47;;;30.34;45.04
59927;BME280;45784;55.156;73.270;2022-07-29T09:47:57;99356.91;;;30.35;45.78
59927;BME280;45784;55.156;73.270;2022-07-29T09:50:39;99357.19;;;30.40;45.92
59927;BME280;45784;55.156;73.270;2022-07-29T09:53:07;99361.63;;;30.38;46.12
59927;BME280;45784;55.156;73.270;2022-07-29T09:55:49;99355.94;;;30.21;46.96
59927;BME280;45784;55.156;73.270;2022-07-29T09:58:18;99364.88;;;30.36;47.62
59927;BME280;45784;55.156;73.270;2022-07-29T10:00:46;99358.13;;;30.54;46.90
59927;BME280;45784;55.156;73.270;2022-07-29T10:03:14;99356.81;;;30.38;46.68
59927;BME280;45784;55.156;73.270;2022-07-29T10:05:42;99360.41;;;30.39;48.09
59927;BME280;45784;55.156;73.270;2022-07-29T10:08:11;99353.66;;;30.56;47.82
59927;BME280;45784;55.156;73.270;2022-07-29T10:10:40;99355.44;;;30.70;46.38
59927;BME280;45784;55.156;73.270;2022-07-29T10:13:13;99354.66;;;30.87;46.68
59927;BME280;45784;55.156;73.270;2022-07-29T10:15:42;99353.63;;;30.80;45.81
59927;BME280;45784;55.156;73.270;2022-07-29T10:18:12;99359.44;;;30.90;45.01
59927;BME280;45784;55.156;73.270;2022-07-29T10:20:40;99367.28;;;30.58;45.99
59927;BME280;45784;55.156;73.270;2022-07-29T10:23:07;99363.22;;;30.39;45.76
59927;BME280;45784;55.156;73.270;2022-07-29T10:25:35;99374.97;;;30.10;46.08
59927;BME280;45784;55.156;73.270;2022-07-29T10:28:02;99378.22;;;30.08;46.40
59927;BME280;45784;55.156;73.270;2022-07-29T10:30:29;99374.41;;;29.95;46.50
59927;BME280;45784;55.156;73.270;2022-07-29T10:33:07;99383.31;;;29.89;47.24
59927;BME280;45784;55.156;73.270;2022-07-29T10:38:55;99383.84;;;30.08;48.21
59927;BME280;45784;55.156;73.270;2022-07-29T10:41:47;99368.88;;;30.15;47.16
59927;BME280;45784;55.156;73.270;2022-07-29T10:44:24;66774.31;;;-148.96;100.00
59927;BME280;45784;55.156;73.270;2022-07-29T10:46:52;99370.09;;;29.62;47.80
59927;BME280;45784;55.156;73.270;2022-07-29T10:49:24;99370.09;;;29.62;47.80
59927;BME280;45784;55.156;73.270;2022-07-29T10:52:08;66774.31;;;-148.96;100.00
59927;BME280;45784;55.156;73.270;2022-07-29T10:54:47;66774.31;;;-148.96;100.00
59927;BME280;45784;55.156;73.270;2022-07-29T10:57:26;66774.31;;;-148.96;100.00
59927;BME280;45784;55.156;73.270;2022-07-29T11:05:09;66774.31;;;-148.96;100.00
59927;BME280;45784;55.156;73.270;2022-07-29T11:07:37;99361.22;;;29.09;48.64
59927;BME280;45784;55.156;73.270;2022-07-29T11:10:24;99365.00;;;29.26;49.11
59927;BME280;45784;55.156;73.270;2022-07-29T11:12:51;99354.44;;;29.65;49.95
59927;BME280;45784;55.156;73.270;2022-07-29T11:15:20;99365.81;;;29.82;46.91
59927;BME280;45784;55.156;73.270;2022-07-29T11:18:08;99370.03;;;29.66;46.74
59927;BME280;45784;55.156;73.270;2022-07-29T11:20:43;99373.34;;;29.61;46.11
59927;BME280;45784;55.156;73.270;2022-07-29T11:23:18;99379.34;;;29.32;46.67
59927;BME280;45784;55.156;73.270;2022-07-29T11:29:00;99371.53;;;29.16;47.36
59927;BME280;45784;55.156;73.270;2022-07-29T11:31:46;99369.34;;;29.31;47.90
59927;BME280;45784;55.156;73.270;2022-07-29T11:47:26;99373.78;;;29.28;46.54
59927;BME280;45784;55.156;73.270;2022-07-29T11:49:57;99379.06;;;29.22;46.55
59927;BME280;45784;55.156;73.270;2022-07-29T11:52:36;99386.59;;;29.29;46.69
59927;BME280;45784;55.156;73.270;2022-07-29T11:55:17;99390.16;;;29.02;45.66
59927;BME280;45784;55.156;73.270;2022-07-29T11:57:46;66774.31;;;-148.96;100.00
59927;BME280;45784;55.156;73.270;2022-07-29T12:00:25;66774.31;;;-148.96;100.00
59927;BME280;45784;55.156;73.270;2022-07-29T12:02:52;99390.16;;;29.02;45.66
59927;BME280;45784;55.156;73.270;2022-07-29T12:05:20;99371.28;;;27.84;49.63
59927;BME280;45784;55.156;73.270;2022-07-29T12:07:47;99375.59;;;27.96;48.65
59927;BME280;45784;55.156;73.270;2022-07-29T12:10:15;99378.81;;;27.94;48.10
59927;BME280;45784;55.156;73.270;2022-07-29T12:12:42;99380.06;;;27.90;48.24
59927;BME280;45784;55.156;73.270;2022-07-29T12:15:16;99377.84;;;27.63;48.63
59927;BME280;45784;55.156;73.270;2022-07-29T12:17:47;66774.31;;;-148.96;100.00
59927;BME280;45784;55.156;73.270;2022-07-29T12:20:25;99366.13;;;27.11;49.65
59927;BME280;45784;55.156;73.270;2022-07-29T12:22:53;99383.38;;;27.02;50.34
59927;BME280;45784;55.156;73.270;2022-07-29T12:25:23;99378.56;;;26.99;50.31
59927;BME280;45784;55.156;73.270;2022-07-29T12:27:59;99382.16;;;27.03;50.39
59927;BME280;45784;55.156;73.270;2022-07-29T12:30:42;99382.16;;;27.03;50.39
59927;BME280;45784;55.156;73.270;2022-07-29T12:33:15;99382.16;;;27.03;50.39
59927;BME280;45784;55.156;73.270;2022-07-29T12:35:44;99400.13;;;26.88;49.89
59927;BME280;45784;55.156;73.270;2022-07-29T12:38:12;99404.59;;;26.67;50.18
59927;BME280;45784;55.156;73.270;2022-07-29T12:40:39;99410.16;;;26.71;50.41
59927;BME280;45784;55.156;73.270;2022-07-29T12:45:42;99415.31;;;26.83;49.91
59927;BME280;45784;55.156;73.270;2022-07-29T12:48:09;99412.13;;;26.92;50.24
59927;BME280;45784;55.156;73.270;2022-07-29T12:50:57;99413.72;;;26.86;49.18
59927;BME280;45784;55.156;73.270;2022-07-29T12:53:25;99431.34;;;26.75;49.68
59927;BME280;45784;55.156;73.270;2022-07-29T12:55:54;99431.34;;;26.75;49.68
59927;BME280;45784;55.156;73.270;2022-07-29T12:58:41;99424.97;;;26.60;49.58
59927;BME280;45784;55.156;73.270;2022-07-29T13:01:16;99433.78;;;26.44;49.48
59927;BME280;45784;55.156;73.270;2022-07-29T13:03:49;99437.78;;;26.32;50.28
59927;BME280;45784;55.156;73.270;2022-07-29T13:06:46;99438.19;;;26.27;50.36
59927;BME280;45784;55.156;73.270;2022-07-29T13:09:16;99444.97;;;26.33;50.50
59927;BME280;45784;55.156;73.270;2022-07-29T13:14:31;99445.75;;;26.37;50.66
59927;BME280;45784;55.156;73.270;2022-07-29T13:17:04;99448.53;;;26.41;50.53
59927;BME280;45784;55.156;73.270;2022-07-29T13:22:00;99455.31;;;26.33;49.87
59927;BME280;45784;55.156;73.270;2022-07-29T13:24:27;99456.91;;;26.30;49.44
59927;BME280;45784;55.156;73.270;2022-07-29T13:26:54;99462.47;;;26.12;48.75
59927;BME280;45784;55.156;73.270;2022-07-29T13:29:21;99470.81;;;25.83;49.17
59927;BME280;45784;55.156;73.270;2022-07-29T13:31:47;99469.16;;;25.64;49.67
59927;BME280;45784;55.156;73.270;2022-07-29T13:34:14;99469.16;;;25.60;49.71
59927;BME280;45784;55.156;73.270;2022-07-29T13:36:41;99466.75;;;25.55;50.04